Time;durP1;ratioP1;P1;durP2;ratioP2;P2;SDS_P1;SDS_P2;PMS_P1;PMS_P2;Temp;Humidity;BMP_temperature;BMP_pressure;BME280_temperature;BME280_humidity;BME280_pressure;Samples;Min_cycle;Max_cycle;Signal;HPM_P1;HPM_P2
2023/05/30 00:00:33;;;;;;;12.43;2.40;;;10.00;99.90;;;;;;5058206;28;20364;-78
2023/05/30 00:03:00;;;;;;;9.27;2.15;;;10.00;99.90;;;;;;5056761;28;20416;-78
2023/05/30 00:05:27;;;;;;;13.05;1.85;;;10.00;99.90;;;;;;5040028;28;20041;-78
2023/05/30 00:07:55;;;;;;;12.00;2.45;;;10.00;99.90;;;;;;5057392;28;20422;-78
2023/05/30 00:10:22;;;;;;;14.65;3.08;;;9.90;99.90;;;;;;5039240;28;20041;-78
2023/05/30 00:12:49;;;;;;;15.70;2.65;;;9.90;99.90;;;;;;5057377;28;20049;-78
2023/05/30 00:15:16;;;;;;;15.27;3.70;;;9.90;99.90;;;;;;5038608;28;20407;-78
2023/05/30 00:17:44;;;;;;;7.88;1.85;;;9.80;99.90;;;;;;5056071;28;20048;-78
2023/05/30 00:20:11;;;;;;;14.05;2.10;;;9.80;99.90;;;;;;5039950;28;20041;-78
2023/05/30 00:22:40;;;;;;;13.07;2.35;;;9.80;99.90;;;;;;5056536;28;20045;-78
2023/05/30 00:25:07;;;;;;;19.20;2.30;;;9.80;99.90;;;;;;5039682;28;20151;-78
2023/05/30 00:27:34;;;;;;;19.73;2.35;;;9.80;99.90;;;;;;5039529;28;20181;-78
2023/05/30 00:30:01;;;;;;;12.57;2.60;;;9.70;99.90;;;;;;5056347;28;20033;-78
2023/05/30 00:32:31;;;;;;;18.52;3.10;;;9.70;99.90;;;;;;5039540;28;20041;-77
2023/05/30 00:34:58;;;;;;;11.48;2.05;;;9.80;99.90;;;;;;5056802;28;20337;-78
2023/05/30 00:37:25;;;;;;;19.77;2.03;;;9.80;99.90;;;;;;5038586;28;20033;-78
2023/05/30 00:39:52;;;;;;;11.70;2.05;;;9.80;99.90;;;;;;5039506;28;20053;-78
2023/05/30 00:42:18;;;;;;;14.88;3.00;;;9.70;99.90;;;;;;5057089;28;20079;-78
2023/05/30 00:44:45;;;;;;;9.30;1.88;;;9.70;99.90;;;;;;5057217;28;20056;-78
2023/05/30 00:47:14;;;;;;;13.82;2.55;;;9.70;99.90;;;;;;5039236;28;20361;-78
2023/05/30 00:49:40;;;;;;;12.95;2.58;;;9.70;99.90;;;;;;5038341;28;20495;-77
2023/05/30 00:52:08;;;;;;;12.20;2.05;;;9.70;99.90;;;;;;5056565;28;20116;-78
2023/05/30 00:54:34;;;;;;;16.45;2.13;;;9.70;99.90;;;;;;5038252;28;20041;-78
2023/05/30 00:57:01;;;;;;;9.05;1.90;;;9.70;99.90;;;;;;5038161;28;20060;-78
2023/05/30 00:59:28;;;;;;;9.85;2.63;;;9.70;99.90;;;;;;5023277;28;20072;-78
2023/05/30 01:01:55;;;;;;;12.38;2.17;;;9.70;99.90;;;;;;5056496;28;20525;-78
2023/05/30 01:04:22;;;;;;;11.25;1.90;;;9.70;99.90;;;;;;5037918;28;20135;-78
2023/05/30 01:09:18;;;;;;;9.13;2.17;;;9.70;99.90;;;;;;5055740;28;20045;-78
2023/05/30 01:11:45;;;;;;;10.38;2.17;;;9.70;99.90;;;;;;5038728;28;20037;-78
2023/05/30 01:14:12;;;;;;;9.65;1.90;;;9.60;99.90;;;;;;5056230;28;20039;-78
2023/05/30 01:16:40;;;;;;;19.52;2.60;;;9.60;99.90;;;;;;5055156;28;20061;-78
2023/05/30 01:19:07;;;;;;;9.70;2.13;;;9.60;99.90;;;;;;5038597;28;20456;-78
2023/05/30 01:21:34;;;;;;;8.50;2.88;;;9.60;99.90;;;;;;5056637;28;20045;-78
2023/05/30 01:24:01;;;;;;;21.40;2.40;;;9.60;99.90;;;;;;5055249;28;20535;-78
2023/05/30 01:26:28;;;;;;;16.58;2.45;;;9.50;99.90;;;;;;5055796;28;20127;-78
2023/05/30 01:28:55;;;;;;;16.52;2.65;;;9.50;99.90;;;;;;5056194;28;20119;-78
2023/05/30 01:31:23;;;;;;;14.77;2.65;;;9.60;99.90;;;;;;5054951;28;20045;-78
2023/05/30 01:33:50;;;;;;;14.32;2.78;;;9.50;99.90;;;;;;5038232;28;20499;-79
2023/05/30 01:36:21;;;;;;;14.77;2.50;;;9.50;99.90;;;;;;5037898;28;20412;-78
2023/05/30 01:38:48;;;;;;;21.70;2.45;;;9.50;99.90;;;;;;5038209;28;20118;-78
2023/05/30 01:41:16;;;;;;;9.18;2.53;;;9.50;99.90;;;;;;5038148;28;20052;-78
2023/05/30 01:43:42;;;;;;;10.90;2.13;;;9.50;99.90;;;;;;5053499;28;20454;-79
2023/05/30 01:46:10;;;;;;;14.82;2.28;;;9.50;99.90;;;;;;5057881;28;20093;-78
2023/05/30 01:48:37;;;;;;;7.30;1.85;;;9.50;99.90;;;;;;5074628;28;20051;-78
2023/05/30 01:51:03;;;;;;;10.68;2.75;;;9.50;99.90;;;;;;5074277;28;20040;-78
2023/05/30 01:53:34;;;;;;;15.18;2.25;;;9.50;99.90;;;;;;5074439;28;20045;-78
2023/05/30 01:56:01;;;;;;;15.52;2.35;;;9.50;99.90;;;;;;5053276;28;20044;-78
2023/05/30 02:01:14;;;;;;;10.23;2.17;;;9.50;99.90;;;;;;5055618;28;20094;-78
2023/05/30 02:03:41;;;;;;;16.40;2.22;;;9.60;99.90;;;;;;5053771;28;20490;-78
2023/05/30 02:06:07;;;;;;;16.73;2.40;;;9.50;99.90;;;;;;5054355;28;20065;-77
2023/05/30 02:08:34;;;;;;;13.25;2.20;;;9.50;99.90;;;;;;5054463;28;20087;-78
2023/05/30 02:11:01;;;;;;;21.98;2.95;;;9.50;99.90;;;;;;5053347;28;20533;-78
2023/05/30 02:13:28;;;;;;;9.90;2.42;;;9.50;99.90;;;;;;5055469;28;20041;-78
2023/05/30 02:15:54;;;;;;;10.60;2.28;;;9.60;99.90;;;;;;5054131;28;20049;-78
2023/05/30 02:18:27;;;;;;;13.55;2.50;;;9.60;99.90;;;;;;5037618;28;20045;-78
2023/05/30 02:20:54;;;;;;;6.45;2.00;;;9.70;99.90;;;;;;5054157;28;20045;-78
2023/05/30 02:23:21;;;;;;;17.45;2.85;;;9.70;99.90;;;;;;5053263;28;20045;-78
2023/05/30 02:25:47;;;;;;;11.23;2.40;;;9.80;99.90;;;;;;5054866;28;20464;-78
2023/05/30 02:28:15;;;;;;;12.20;3.13;;;9.80;99.90;;;;;;5054913;28;20455;-78
2023/05/30 02:30:42;;;;;;;15.48;2.67;;;9.80;99.90;;;;;;5053055;28;20463;-78
2023/05/30 02:33:09;;;;;;;17.08;2.88;;;9.80;99.90;;;;;;5054098;28;20075;-78
2023/05/30 02:35:36;;;;;;;12.57;2.35;;;9.90;99.90;;;;;;5054710;28;20396;-78
2023/05/30 02:38:04;;;;;;;17.42;2.63;;;9.90;99.90;;;;;;5052967;28;20059;-78
2023/05/30 02:40:30;;;;;;;14.00;2.40;;;10.00;99.90;;;;;;5054224;28;20057;-78
2023/05/30 02:42:58;;;;;;;11.93;2.70;;;10.00;99.90;;;;;;5052636;28;20099;-78
2023/05/30 02:45:29;;;;;;;16.50;2.70;;;10.00;99.90;;;;;;5053827;28;20475;-78
2023/05/30 02:47:57;;;;;;;10.85;2.63;;;10.00;99.90;;;;;;5054540;28;20037;-78
2023/05/30 02:50:24;;;;;;;9.45;2.22;;;10.00;99.90;;;;;;5052909;28;20049;-78
2023/05/30 02:52:51;;;;;;;14.20;2.63;;;10.00;99.90;;;;;;5053514;28;20467;-78
2023/05/30 02:55:18;;;;;;;15.13;3.33;;;10.10;99.90;;;;;;5053176;28;20045;-78
2023/05/30 02:58:24;;;;;;;13.60;3.05;;;10.10;99.90;;;;;;4974456;28;20464;-78
2023/05/30 03:00:59;;;;;;;21.65;3.05;;;10.10;99.90;;;;;;4990458;28;20050;-78
2023/05/30 03:03:26;;;;;;;8.75;2.28;;;10.10;99.90;;;;;;5016068;28;20048;-78
2023/05/30 03:06:01;;;;;;;14.07;3.10;;;10.10;99.90;;;;;;5053427;28;20044;-78
2023/05/30 03:08:47;;;;;;;16.08;2.58;;;10.10;99.90;;;;;;5054159;28;20045;-77
2023/05/30 03:11:13;;;;;;;10.15;2.10;;;10.20;99.90;;;;;;5052766;28;20049;-78
2023/05/30 03:13:41;;;;;;;15.48;2.53;;;10.20;99.90;;;;;;5053371;28;20376;-78
2023/05/30 03:16:08;;;;;;;12.50;2.20;;;10.20;99.90;;;;;;5052360;28;20049;-78
2023/05/30 03:18:35;;;;;;;7.65;2.10;;;10.20;99.90;;;;;;5058877;28;20452;-78
2023/05/30 03:21:01;;;;;;;9.60;2.25;;;10.10;99.90;;;;;;5040982;28;20544;-78
2023/05/30 03:23:28;;;;;;;10.48;2.25;;;10.10;99.90;;;;;;5057341;28;20037;-77
2023/05/30 03:25:55;;;;;;;13.88;2.47;;;10.10;99.90;;;;;;5057902;28;20095;-78
2023/05/30 03:28:22;;;;;;;13.18;2.53;;;10.10;99.90;;;;;;5058190;28;20107;-78
2023/05/30 03:31:11;;;;;;;15.05;2.97;;;10.10;99.90;;;;;;5056303;28;20060;-77
2023/05/30 03:33:38;;;;;;;7.65;2.38;;;10.10;99.90;;;;;;5057234;28;20052;-78
2023/05/30 03:36:06;;;;;;;17.90;2.75;;;10.10;99.90;;;;;;5055865;28;20094;-78
2023/05/30 03:38:33;;;;;;;18.70;2.90;;;10.20;99.90;;;;;;5057147;28;20049;-78
2023/05/30 03:41:00;;;;;;;16.80;2.80;;;10.20;99.90;;;;;;5040571;28;20422;-78
2023/05/30 03:43:28;;;;;;;7.45;2.50;;;10.30;99.90;;;;;;5055949;28;20418;-78
2023/05/30 03:45:56;;;;;;;15.05;3.08;;;10.30;99.90;;;;;;5056782;28;20135;-78
2023/05/30 03:48:22;;;;;;;11.77;2.40;;;10.30;99.90;;;;;;5057247;28;20068;-77
2023/05/30 03:50:49;;;;;;;15.05;3.10;;;10.30;99.90;;;;;;5057291;28;20037;-78
2023/05/30 03:53:16;;;;;;;6.82;2.50;;;10.30;99.90;;;;;;5056798;28;20095;-78
2023/05/30 03:55:42;;;;;;;13.15;2.78;;;10.40;99.90;;;;;;5073964;28;20080;-77
2023/05/30 03:58:12;;;;;;;8.75;2.55;;;10.40;99.90;;;;;;5076741;28;20044;-78
2023/05/30 04:00:38;;;;;;;10.82;2.67;;;10.40;99.90;;;;;;5076693;28;20044;-78
2023/05/30 04:03:05;;;;;;;15.05;2.30;;;10.30;99.90;;;;;;5076578;28;20098;-78
2023/05/30 04:05:32;;;;;;;17.85;2.97;;;10.30;99.90;;;;;;5076416;28;20036;-78
2023/05/30 04:08:00;;;;;;;10.52;2.40;;;10.40;99.90;;;;;;5076456;28;20048;-78
2023/05/30 04:10:26;;;;;;;7.57;2.20;;;10.40;99.90;;;;;;5059204;28;20037;-78
2023/05/30 04:12:53;;;;;;;10.75;2.40;;;10.40;99.90;;;;;;5076453;28;20055;-78
2023/05/30 04:15:20;;;;;;;11.40;2.92;;;10.40;99.90;;;;;;5077343;28;20067;-79
2023/05/30 04:17:48;;;;;;;12.40;3.30;;;10.50;99.90;;;;;;5075533;28;20135;-78
2023/05/30 04:20:17;;;;;;;13.10;3.78;;;10.50;99.90;;;;;;5076517;28;20040;-78
2023/05/30 04:22:44;;;;;;;10.88;2.30;;;10.60;99.90;;;;;;5075670;28;20048;-78
2023/05/30 04:25:12;;;;;;;14.88;2.50;;;10.50;99.90;;;;;;5076027;28;20063;-78
2023/05/30 04:27:41;;;;;;;14.50;2.60;;;10.60;99.90;;;;;;5076069;28;20052;-78
2023/05/30 04:30:16;;;;;;;13.60;2.10;;;10.60;99.90;;;;;;5074877;28;20044;-78
2023/05/30 04:32:45;;;;;;;9.95;2.92;;;10.60;99.90;;;;;;5076502;28;20340;-78
2023/05/30 04:35:15;;;;;;;11.98;2.28;;;10.70;99.90;;;;;;5075926;28;20041;-78
2023/05/30 04:37:44;;;;;;;9.25;2.75;;;10.80;99.90;;;;;;5075087;28;20054;-78
2023/05/30 04:40:15;;;;;;;7.28;2.53;;;10.80;99.90;;;;;;5076584;28;20357;-78
2023/05/30 04:42:41;;;;;;;13.68;2.35;;;10.90;99.90;;;;;;5073203;28;20055;-79
2023/05/30 04:45:08;;;;;;;9.23;2.22;;;10.80;99.90;;;;;;5039071;28;20072;-78
2023/05/30 04:47:38;;;;;;;19.50;3.67;;;10.90;99.90;;;;;;5039704;28;20463;-79
2023/05/30 04:50:05;;;;;;;6.93;2.05;;;10.90;99.90;;;;;;5022137;28;20045;-78
2023/05/30 04:52:33;;;;;;;10.85;2.33;;;10.90;99.90;;;;;;5039109;28;20076;-78
2023/05/30 04:54:59;;;;;;;13.52;2.63;;;10.90;99.90;;;;;;5038676;28;20056;-79
2023/05/30 04:57:28;;;;;;;14.57;2.78;;;10.90;99.90;;;;;;5038200;28;20048;-79
2023/05/30 04:59:55;;;;;;;13.30;3.05;;;10.90;99.90;;;;;;5039277;28;20060;-78
2023/05/30 05:02:23;;;;;;;11.85;3.10;;;10.90;99.90;;;;;;5055556;28;20030;-78
2023/05/30 05:04:51;;;;;;;14.10;2.90;;;10.90;99.90;;;;;;5022459;28;20477;-78
2023/05/30 05:07:18;;;;;;;15.70;2.67;;;11.00;99.90;;;;;;5038764;28;20060;-77
2023/05/30 05:10:03;;;;;;;11.23;2.58;;;11.00;99.90;;;;;;5038023;28;20072;-78
2023/05/30 05:12:30;;;;;;;17.08;2.72;;;11.00;99.90;;;;;;5056586;28;20052;-78
2023/05/30 05:14:57;;;;;;;13.02;2.42;;;11.10;99.90;;;;;;5038500;28;20049;-78
2023/05/30 05:17:24;;;;;;;11.15;2.60;;;11.10;99.90;;;;;;5055699;28;20055;-78
2023/05/30 05:19:51;;;;;;;15.25;2.95;;;11.20;99.90;;;;;;5056117;28;20084;-78
2023/05/30 05:22:18;;;;;;;9.48;2.38;;;11.20;99.90;;;;;;5038402;28;20136;-78
2023/05/30 05:24:45;;;;;;;9.82;2.10;;;11.20;99.90;;;;;;5054883;28;20499;-78
2023/05/30 05:27:11;;;;;;;15.13;3.72;;;11.20;99.90;;;;;;5055981;28;20415;-78
2023/05/30 05:29:38;;;;;;;10.93;2.40;;;11.20;99.90;;;;;;5037255;28;20116;-78
2023/05/30 05:32:05;;;;;;;12.63;3.70;;;11.20;99.90;;;;;;5038647;28;20076;-78
2023/05/30 05:34:32;;;;;;;8.77;2.30;;;11.30;99.90;;;;;;5055751;28;20044;-77
2023/05/30 05:39:44;;;;;;;16.88;3.22;;;11.30;99.90;;;;;;5055851;28;20072;-78
2023/05/30 05:42:11;;;;;;;11.90;2.15;;;11.40;99.90;;;;;;5032316;28;20037;-78
2023/05/30 05:44:37;;;;;;;10.93;2.60;;;11.40;99.90;;;;;;5036630;28;20053;-78
2023/05/30 05:47:04;;;;;;;16.38;2.92;;;11.40;99.90;;;;;;5018226;28;20428;-79
2023/05/30 05:49:31;;;;;;;11.40;2.80;;;11.50;99.90;;;;;;5017522;28;20041;-78
2023/05/30 05:51:57;;;;;;;8.07;2.13;;;11.60;99.90;;;;;;5035404;28;20140;-78
2023/05/30 05:54:27;;;;;;;10.68;2.85;;;11.60;99.90;;;;;;5018165;28;20050;-78
2023/05/30 05:56:55;;;;;;;9.57;2.25;;;11.60;99.90;;;;;;5034786;28;20124;-78
2023/05/30 05:59:21;;;;;;;14.13;2.50;;;11.70;99.90;;;;;;5018437;28;20136;-78
2023/05/30 06:01:48;;;;;;;12.48;2.83;;;11.80;99.90;;;;;;5035303;28;20069;-78
2023/05/30 06:04:15;;;;;;;9.23;2.75;;;11.80;99.90;;;;;;5034531;28;20052;-78
2023/05/30 06:06:42;;;;;;;14.52;3.45;;;11.80;99.90;;;;;;5035219;28;20040;-78
2023/05/30 06:09:09;;;;;;;13.45;2.78;;;11.80;99.90;;;;;;5034535;28;20080;-78
2023/05/30 06:11:35;;;;;;;10.90;2.72;;;11.80;99.90;;;;;;5035315;28;20045;-78
2023/05/30 06:14:02;;;;;;;11.73;2.58;;;11.80;99.90;;;;;;5035231;28;20121;-77
2023/05/30 06:16:31;;;;;;;11.40;2.78;;;11.80;99.90;;;;;;5034434;28;20429;-77
2023/05/30 06:18:58;;;;;;;13.13;3.38;;;11.80;99.90;;;;;;5017851;28;20531;-78
2023/05/30 06:21:25;;;;;;;12.95;2.80;;;11.80;99.90;;;;;;5035269;28;20111;-77
2023/05/30 06:23:51;;;;;;;11.07;2.97;;;11.90;99.90;;;;;;5016641;28;20064;-79
2023/05/30 06:26:20;;;;;;;13.27;2.85;;;11.90;99.90;;;;;;5035177;28;20116;-78
2023/05/30 06:28:47;;;;;;;14.68;3.65;;;11.90;99.90;;;;;;5035015;28;20045;-77
2023/05/30 06:31:13;;;;;;;12.63;2.80;;;12.00;99.90;;;;;;5016808;28;20041;-78
2023/05/30 06:33:40;;;;;;;17.15;3.20;;;12.00;99.90;;;;;;5017420;28;20061;-78
2023/05/30 06:36:07;;;;;;;13.40;2.85;;;12.00;99.90;;;;;;5039686;28;20052;-80
2023/05/30 06:38:34;;;;;;;10.70;2.53;;;12.10;99.90;;;;;;5038732;28;20048;-78
2023/05/30 06:41:00;;;;;;;14.02;2.80;;;12.20;99.90;;;;;;5055271;28;20083;-78
2023/05/30 06:43:27;;;;;;;8.93;2.53;;;12.20;99.90;;;;;;5044166;28;20121;-78
2023/05/30 06:45:53;;;;;;;12.82;2.60;;;12.20;99.90;;;;;;5075084;28;20158;-77
2023/05/30 06:48:22;;;;;;;11.25;2.80;;;12.30;99.90;;;;;;5073779;28;20037;-77
2023/05/30 06:50:49;;;;;;;20.48;2.90;;;12.30;99.90;;;;;;5073786;28;20103;-77
2023/05/30 06:53:16;;;;;;;14.55;2.97;;;12.40;99.90;;;;;;5065036;28;20496;-77
2023/05/30 06:55:43;;;;;;;11.45;2.80;;;12.50;99.90;;;;;;5092847;28;20051;-77
2023/05/30 06:58:10;;;;;;;15.57;2.40;;;12.50;99.90;;;;;;5077826;28;20064;-77
2023/05/30 07:00:38;;;;;;;10.07;2.70;;;12.50;99.90;;;;;;5073488;28;20040;-77
2023/05/30 07:03:04;;;;;;;7.60;2.20;;;12.60;99.90;;;;;;5073422;28;20032;-77
2023/05/30 07:05:31;;;;;;;11.23;2.40;;;12.60;99.90;;;;;;5074576;28;20064;-77
2023/05/30 07:10:45;;;;;;;9.45;2.72;;;12.80;99.90;;;;;;5056498;28;20134;-82
2023/05/30 07:13:12;;;;;;;11.25;2.47;;;12.70;99.90;;;;;;5053001;28;20041;-77
2023/05/30 07:15:39;;;;;;;16.08;2.72;;;12.70;99.90;;;;;;5068642;28;20529;-77
2023/05/30 07:18:06;;;;;;;8.38;2.85;;;12.70;99.90;;;;;;5065260;28;20494;-77
2023/05/30 07:20:33;;;;;;;13.07;2.80;;;12.60;99.90;;;;;;5054144;28;20055;-77
2023/05/30 07:22:59;;;;;;;17.52;2.78;;;12.80;99.90;;;;;;5071276;28;20086;-78
2023/05/30 07:25:26;;;;;;;11.30;2.67;;;12.80;99.90;;;;;;5074424;28;20036;-78
2023/05/30 07:27:53;;;;;;;13.35;2.75;;;13.00;99.90;;;;;;5056697;28;20036;-78
2023/05/30 07:30:20;;;;;;;16.05;2.85;;;13.00;99.90;;;;;;5072605;28;20463;-78
2023/05/30 07:32:47;;;;;;;9.88;3.05;;;13.00;99.90;;;;;;5073087;28;20123;-78
2023/05/30 07:35:14;;;;;;;10.45;2.60;;;13.00;99.90;;;;;;5074275;28;20048;-78
2023/05/30 07:37:43;;;;;;;7.47;2.47;;;13.00;99.90;;;;;;5062940;28;20049;-78
2023/05/30 07:40:10;;;;;;;10.30;2.50;;;13.10;99.90;;;;;;5054873;28;20080;-78
2023/05/30 07:42:36;;;;;;;18.52;3.08;;;13.10;99.90;;;;;;5053194;28;20053;-78
2023/05/30 07:45:03;;;;;;;13.00;2.58;;;13.20;99.90;;;;;;5035107;28;20061;-78
2023/05/30 07:50:17;;;;;;;18.05;3.35;;;13.20;99.90;;;;;;5033390;28;20046;-78
2023/05/30 07:52:44;;;;;;;14.18;3.65;;;13.30;99.90;;;;;;5016889;28;20033;-78
2023/05/30 07:55:11;;;;;;;9.27;2.50;;;13.30;99.90;;;;;;5034092;28;20077;-78
2023/05/30 07:57:40;;;;;;;10.27;2.45;;;13.40;99.90;;;;;;5016093;28;20217;-78
2023/05/30 08:00:08;;;;;;;9.48;2.50;;;13.40;99.90;;;;;;5016659;28;20123;-78
2023/05/30 08:02:37;;;;;;;19.73;3.40;;;13.50;99.90;;;;;;5032994;28;20041;-79
2023/05/30 08:05:04;;;;;;;10.00;2.20;;;13.50;99.90;;;;;;5019447;28;20598;-78
2023/05/30 08:10:17;;;;;;;14.25;2.60;;;13.80;99.90;;;;;;5056843;28;20053;-78
2023/05/30 08:12:43;;;;;;;11.65;2.90;;;13.90;99.90;;;;;;5039876;28;20132;-78
2023/05/30 08:15:10;;;;;;;15.13;2.92;;;14.00;99.90;;;;;;5054448;28;20087;-82
2023/05/30 08:17:41;;;;;;;12.05;2.38;;;14.20;99.90;;;;;;5036343;28;20475;-81
2023/05/30 08:20:08;;;;;;;11.73;2.50;;;14.20;99.90;;;;;;5030943;28;20452;-82
2023/05/30 08:22:40;;;;;;;15.38;3.38;;;14.20;99.90;;;;;;5034809;28;20041;-80
2023/05/30 08:25:07;;;;;;;24.05;3.10;;;14.20;99.90;;;;;;5019275;28;20041;-80
2023/05/30 08:30:24;;;;;;;12.38;2.80;;;14.30;99.90;;;;;;5037482;28;20049;-81
2023/05/30 08:32:51;;;;;;;11.65;2.90;;;14.60;99.90;;;;;;5038879;28;20037;-82
2023/05/30 08:35:20;;;;;;;7.55;2.67;;;14.70;99.90;;;;;;5004871;28;20108;-82
2023/05/30 08:40:33;;;;;;;12.32;2.80;;;14.80;99.90;;;;;;5036778;28;20053;-80
2023/05/30 08:43:00;;;;;;;11.77;2.75;;;14.80;99.90;;;;;;5020482;28;20037;-80
2023/05/30 08:45:26;;;;;;;14.52;3.15;;;14.90;99.90;;;;;;5075613;28;20048;-80
2023/05/30 08:47:55;;;;;;;11.95;2.88;;;14.90;99.90;;;;;;5076229;28;20378;-80
2023/05/30 08:50:21;;;;;;;9.57;2.58;;;14.90;99.90;;;;;;5074805;28;20075;-80
2023/05/30 08:52:48;;;;;;;13.75;3.75;;;14.80;99.90;;;;;;5074569;28;20068;-80
2023/05/30 08:55:16;;;;;;;10.88;3.20;;;15.00;99.90;;;;;;5075235;28;20492;-77
2023/05/30 08:57:43;;;;;;;20.30;3.22;;;15.10;99.90;;;;;;5057867;28;20131;-78
2023/05/30 09:00:11;;;;;;;22.63;3.17;;;15.20;99.90;;;;;;5074993;28;20124;-78
2023/05/30 09:02:38;;;;;;;8.75;2.55;;;15.30;99.90;;;;;;5057669;28;20785;-78
2023/05/30 09:05:06;;;;;;;9.35;2.58;;;15.40;99.90;;;;;;5076380;28;20037;-78
2023/05/30 09:10:19;;;;;;;12.77;2.88;;;15.70;99.90;;;;;;5075544;28;20076;-78
2023/05/30 09:12:45;;;;;;;10.75;2.67;;;15.90;99.90;;;;;;5075949;28;20050;-78
2023/05/30 09:15:12;;;;;;;14.63;2.58;;;15.90;99.90;;;;;;5075365;28;20041;-78
2023/05/30 09:17:40;;;;;;;10.80;2.97;;;15.90;99.90;;;;;;5075370;28;20127;-78
2023/05/30 09:20:11;;;;;;;12.10;3.00;;;15.80;99.90;;;;;;5075928;28;20546;-78
2023/05/30 09:22:37;;;;;;;10.45;2.50;;;15.60;99.90;;;;;;5074695;28;20109;-79
2023/05/30 09:25:05;;;;;;;11.88;2.70;;;15.40;99.90;;;;;;5072403;28;20348;-82
2023/05/30 09:27:35;;;;;;;12.60;3.50;;;15.40;99.90;;;;;;5069512;28;20382;-78
2023/05/30 09:30:01;;;;;;;11.93;2.95;;;15.30;99.90;;;;;;5073112;28;20044;-78
2023/05/30 09:32:36;;;;;;;10.00;3.00;;;15.30;99.90;;;;;;5040182;28;20079;-79
2023/05/30 09:35:03;;;;;;;12.57;2.72;;;15.40;99.90;;;;;;5041651;28;20140;-79
2023/05/30 09:40:19;;;;;;;11.82;2.75;;;16.20;99.90;;;;;;5049281;28;20049;-80
2023/05/30 09:42:46;;;;;;;9.52;2.67;;;16.50;99.90;;;;;;5036918;28;20243;-80
2023/05/30 09:45:13;;;;;;;15.35;2.88;;;16.80;99.90;;;;;;5018068;28;20045;-79
2023/05/30 09:47:41;;;;;;;9.18;3.20;;;16.80;99.90;;;;;;5022309;28;20128;-79
2023/05/30 09:50:07;;;;;;;9.00;3.00;;;16.60;99.90;;;;;;5036692;28;20041;-79
2023/05/30 09:52:34;;;;;;;9.15;2.80;;;16.60;99.90;;;;;;5037540;28;20043;-82
2023/05/30 09:55:05;;;;;;;11.32;2.28;;;16.40;99.90;;;;;;5037781;28;20079;-81
2023/05/30 09:57:35;;;;;;;10.68;2.67;;;16.50;99.90;;;;;;5020996;28;20468;-82
2023/05/30 10:00:02;;;;;;;9.30;2.20;;;16.60;99.90;;;;;;5037738;28;20056;-82
2023/05/30 10:02:35;;;;;;;10.68;2.75;;;16.60;99.90;;;;;;5054692;28;20471;-82
2023/05/30 10:05:02;;;;;;;12.75;2.90;;;16.60;99.90;;;;;;5021253;28;20103;-82
2023/05/30 10:10:32;;;;;;;14.70;3.00;;;16.70;99.90;;;;;;5036759;28;20033;-82
2023/05/30 10:13:00;;;;;;;15.20;2.78;;;16.80;99.90;;;;;;5055073;28;20071;-82
2023/05/30 10:15:27;;;;;;;9.43;2.58;;;16.60;99.90;;;;;;5054769;28;20051;-82
2023/05/30 10:20:40;;;;;;;13.63;3.50;;;17.00;99.90;;;;;;5055025;28;20053;-82
2023/05/30 10:23:07;;;;;;;13.20;2.90;;;17.20;99.90;;;;;;5034373;28;20128;-82
2023/05/30 10:25:35;;;;;;;9.80;2.72;;;17.30;99.90;;;;;;5053809;28;20037;-82
2023/05/30 10:28:03;;;;;;;14.65;3.17;;;17.60;99.90;;;;;;5040139;28;20457;-81
2023/05/30 10:30:30;;;;;;;12.45;2.60;;;17.90;99.90;;;;;;5072903;28;20041;-80
2023/05/30 10:32:56;;;;;;;9.38;2.85;;;18.00;99.90;;;;;;5052721;28;20399;-82
2023/05/30 10:35:23;;;;;;;8.75;2.47;;;18.10;99.90;;;;;;5027801;28;20041;-82
2023/05/30 10:37:50;;;;;;;11.43;2.55;;;18.00;99.90;;;;;;5028144;28;20120;-81
2023/05/30 10:40:17;;;;;;;9.05;2.55;;;18.20;99.90;;;;;;5036009;28;20110;-81
2023/05/30 10:42:43;;;;;;;10.05;2.65;;;18.40;99.90;;;;;;5035370;28;20135;-82
2023/05/30 10:45:10;;;;;;;10.45;2.92;;;18.70;99.90;;;;;;5072440;28;20114;-82
2023/05/30 10:47:38;;;;;;;13.80;2.63;;;19.00;99.90;;;;;;5073742;28;20044;-81
2023/05/30 10:50:05;;;;;;;11.95;2.40;;;19.50;99.90;;;;;;5056112;28;20040;-82
2023/05/30 10:52:31;;;;;;;12.55;2.88;;;20.00;99.90;;;;;;5074088;28;20459;-83
2023/05/30 10:54:58;;;;;;;10.85;2.63;;;20.40;99.90;;;;;;5074399;28;20051;-80
2023/05/30 10:57:28;;;;;;;13.57;2.60;;;20.50;99.90;;;;;;5071155;28;20037;-80
2023/05/30 10:59:55;;;;;;;12.82;2.83;;;20.50;99.90;;;;;;5058353;28;20379;-81
2023/05/30 11:02:22;;;;;;;14.57;2.83;;;20.60;99.90;;;;;;5062300;28;20047;-80
2023/05/30 11:04:48;;;;;;;7.97;2.38;;;20.60;99.90;;;;;;5060777;28;20044;-79
2023/05/30 11:07:17;;;;;;;10.35;2.42;;;20.90;99.90;;;;;;5064341;28;20068;-82
2023/05/30 11:09:44;;;;;;;11.50;2.90;;;21.30;99.90;;;;;;5061434;28;20094;-83
2023/05/30 11:12:11;;;;;;;13.63;3.03;;;21.50;99.90;;;;;;5048887;28;20438;-82
2023/05/30 11:14:39;;;;;;;8.43;2.67;;;21.50;99.90;;;;;;5067814;28;20066;-80
2023/05/30 11:17:08;;;;;;;11.95;3.10;;;21.40;99.90;;;;;;5065196;28;20064;-79
2023/05/30 11:19:35;;;;;;;11.10;2.90;;;21.30;99.90;;;;;;5062092;28;20174;-79
2023/05/30 11:22:02;;;;;;;15.50;3.20;;;21.70;99.90;;;;;;5053992;28;20045;-80
2023/05/30 11:24:29;;;;;;;11.10;3.65;;;21.90;99.90;;;;;;5053540;28;20044;-82
2023/05/30 11:26:57;;;;;;;9.73;2.95;;;22.20;99.90;;;;;;5057760;28;20041;-79
2023/05/30 11:29:25;;;;;;;13.27;2.97;;;22.10;99.90;;;;;;5069815;28;20032;-80
2023/05/30 11:31:51;;;;;;;8.35;2.47;;;22.50;99.60;;;;;;5070871;28;20056;-81
2023/05/30 11:34:18;;;;;;;12.60;3.72;;;22.50;98.30;;;;;;5068643;28;20044;-81
2023/05/30 11:36:46;;;;;;;12.15;3.85;;;22.90;98.20;;;;;;5073185;28;20515;-80
2023/05/30 11:39:13;;;;;;;16.23;3.88;;;23.00;97.90;;;;;;5057899;28;20110;-81
2023/05/30 11:41:40;;;;;;;10.55;3.47;;;22.80;97.40;;;;;;5058117;28;20124;-82
2023/05/30 11:44:06;;;;;;;12.77;3.38;;;23.10;97.70;;;;;;5056042;28;20356;-82
2023/05/30 11:49:36;;;;;;;13.45;3.72;;;22.60;97.00;;;;;;5030635;28;20048;-83
2023/05/30 11:52:03;;;;;;;13.20;3.70;;;22.90;96.40;;;;;;5076994;28;20336;-82
2023/05/30 11:54:29;;;;;;;13.38;3.45;;;22.60;95.70;;;;;;5077051;28;20048;-79
2023/05/30 11:56:57;;;;;;;7.95;2.70;;;22.00;96.60;;;;;;5075999;28;20456;-80
2023/05/30 11:59:24;;;;;;;12.35;3.50;;;21.70;97.10;;;;;;5076820;28;20040;-80
2023/05/30 12:01:51;;;;;;;9.95;2.50;;;22.10;97.60;;;;;;5072123;28;20064;-80
2023/05/30 12:04:18;;;;;;;12.77;3.88;;;22.70;96.30;;;;;;5058882;28;20475;-79
2023/05/30 12:06:45;;;;;;;12.40;3.30;;;22.90;95.10;;;;;;5067347;28;20359;-80
2023/05/30 12:09:12;;;;;;;10.02;3.15;;;22.70;95.80;;;;;;5056733;28;20068;-80
2023/05/30 12:11:39;;;;;;;12.75;2.58;;;22.20;96.40;;;;;;5056471;28;20459;-80
2023/05/30 12:14:05;;;;;;;11.85;3.38;;;22.20;97.70;;;;;;5057285;28;20426;-81
2023/05/30 12:16:32;;;;;;;8.65;2.53;;;22.50;98.60;;;;;;5056589;28;20107;-80
2023/05/30 12:18:59;;;;;;;10.30;2.10;;;22.60;96.60;;;;;;5056790;28;20155;-80
2023/05/30 12:21:26;;;;;;;11.15;3.75;;;22.50;96.20;;;;;;5057189;28;20471;-80
2023/05/30 12:23:53;;;;;;;6.63;2.58;;;22.80;95.50;;;;;;5056516;28;20037;-80
2023/05/30 12:26:20;;;;;;;11.43;3.10;;;22.60;96.90;;;;;;5057251;28;20119;-82
2023/05/30 12:28:49;;;;;;;12.60;3.75;;;22.70;94.60;;;;;;5066063;28;20415;-80
2023/05/30 12:31:15;;;;;;;13.23;3.05;;;22.40;95.30;;;;;;5076366;28;20040;-81
2023/05/30 12:33:42;;;;;;;9.30;2.78;;;22.30;95.50;;;;;;5073784;28;20395;-79
2023/05/30 12:36:09;;;;;;;9.13;2.63;;;22.30;95.60;;;;;;5069625;28;20047;-81
2023/05/30 12:38:44;;;;;;;11.23;3.38;;;22.00;95.30;;;;;;5056004;28;20053;-79
2023/05/30 12:41:11;;;;;;;9.07;2.42;;;21.40;96.30;;;;;;5072050;28;20036;-82
2023/05/30 12:43:38;;;;;;;12.80;3.67;;;21.80;97.70;;;;;;5061414;28;20053;-81
2023/05/30 12:46:05;;;;;;;7.55;2.50;;;22.70;96.10;;;;;;5057067;28;20041;-78
2023/05/30 12:48:31;;;;;;;11.30;3.35;;;23.20;94.70;;;;;;5056903;28;20037;-80
2023/05/30 12:51:01;;;;;;;11.80;3.83;;;23.10;94.50;;;;;;5037902;28;20060;-78
2023/05/30 12:53:29;;;;;;;12.48;3.78;;;23.20;94.50;;;;;;5055394;28;20048;-80
2023/05/30 12:55:55;;;;;;;10.77;3.60;;;22.90;95.00;;;;;;5038036;28;20103;-79
2023/05/30 12:58:22;;;;;;;11.77;3.90;;;22.80;94.30;;;;;;5056382;28;20468;-78
2023/05/30 13:00:49;;;;;;;9.85;2.67;;;22.90;94.70;;;;;;5056649;28;20048;-79
2023/05/30 13:03:17;;;;;;;9.40;2.60;;;23.30;93.60;;;;;;5053596;28;20106;-79
2023/05/30 13:05:47;;;;;;;12.15;3.58;;;23.60;95.30;;;;;;5056029;28;20056;-81
2023/05/30 13:08:14;;;;;;;13.38;4.10;;;23.40;93.30;;;;;;5056171;28;20036;-78
2023/05/30 13:10:40;;;;;;;15.77;4.70;;;24.00;93.30;;;;;;5055108;28;20045;-81
2023/05/30 13:13:07;;;;;;;11.93;4.10;;;23.80;92.50;;;;;;5055827;28;20053;-78
2023/05/30 13:15:35;;;;;;;10.68;3.70;;;23.70;92.80;;;;;;5056419;28;20071;-79
2023/05/30 13:18:02;;;;;;;11.82;3.80;;;23.10;92.70;;;;;;5055077;28;20045;-79